Pewaukee, Wisconsin
Current Conditions -  °F | °C
As of 11:45 AM on Sunday 23 Nov 2014 (Local Time) from KUES Reporting Station
Drizzle Drizzle  
Wind Chill: 43°   Ceiling: 500
Heat Index: 46°   Visibility: 5mi
Dew Point: 45°   Wind: 7mph
Humidity: 93%   Direction: 180°S
Pressure: 29.6"   Gusts: NA
Location:  43.08°N, 88.26°W
Report Text: KUES 231745Z 18006KT 5SM DZ BR OVC005 08/07 A2960
Loading
Personal Weather Stations






























Interactive Weather Map New forecast layout! Learn more

10-Day Weather Forecast

Advertisements
Track Severe Weather on mobile